createdAt,value
2022-11-12T00:01:15.259Z,11.97
2022-11-12T00:03:44.609Z,14.17
2022-11-12T00:06:12.603Z,11.23
2022-11-12T00:08:40.658Z,14.00
2022-11-12T00:11:08.700Z,12.17
2022-11-12T00:13:36.716Z,13.23
2022-11-12T00:16:05.801Z,13.27
2022-11-12T00:18:33.901Z,12.20
2022-11-12T00:21:03.200Z,11.23
2022-11-12T00:23:31.176Z,10.20
2022-11-12T00:26:00.814Z,14.00
2022-11-12T00:28:32.215Z,12.07
2022-11-12T00:31:08.682Z,12.10
2022-11-12T00:33:40.787Z,11.50
2022-11-12T00:36:11.243Z,10.70
2022-11-12T00:38:39.203Z,10.23
2022-11-12T00:41:07.215Z,14.23
2022-11-12T00:43:35.672Z,11.83
2022-11-12T00:46:03.776Z,17.57
2022-11-12T00:48:31.838Z,12.23
2022-11-12T00:51:04.437Z,14.73
2022-11-12T00:53:34.172Z,13.30
2022-11-12T00:56:03.454Z,13.40
2022-11-12T00:58:31.954Z,13.57
2022-11-12T01:01:05.474Z,15.53
2022-11-12T01:03:33.533Z,11.90
2022-11-12T01:06:04.102Z,22.67
2022-11-12T01:08:33.796Z,12.63
2022-11-12T01:11:08.005Z,13.60
2022-11-12T01:13:40.044Z,14.67
2022-11-12T01:16:14.249Z,17.37
2022-11-12T01:18:42.672Z,11.23
2022-11-12T01:21:11.396Z,14.23
2022-11-12T01:23:42.325Z,13.90
2022-11-12T01:26:12.245Z,16.03
2022-11-12T01:28:40.793Z,11.17
2022-11-12T01:31:13.525Z,11.93
2022-11-12T01:33:41.853Z,9.67
2022-11-12T01:36:10.263Z,13.17
2022-11-12T01:38:40.881Z,10.43
2022-11-12T01:41:10.542Z,9.17
2022-11-12T01:43:39.060Z,8.33
2022-11-12T01:46:14.473Z,9.90
2022-11-12T01:48:49.365Z,9.13
2022-11-12T01:51:17.710Z,8.70
2022-11-12T01:53:51.474Z,7.57
2022-11-12T01:56:20.966Z,7.77
2022-11-12T01:58:53.427Z,10.40
2022-11-12T02:01:21.430Z,10.13
2022-11-12T02:03:49.488Z,11.57
2022-11-12T02:06:18.662Z,7.27
2022-11-12T02:08:49.572Z,8.17
2022-11-12T02:11:19.557Z,8.60
2022-11-12T02:14:01.534Z,10.70
2022-11-12T02:16:33.164Z,10.10
2022-11-12T02:19:01.488Z,11.07
2022-11-12T02:21:30.973Z,10.00
2022-11-12T02:24:00.468Z,11.83
2022-11-12T02:26:32.708Z,11.77
2022-11-12T02:29:01.053Z,7.90
2022-11-12T02:31:29.347Z,19.13
2022-11-12T02:33:57.573Z,9.80
2022-11-12T02:36:26.038Z,19.43
2022-11-12T02:38:55.401Z,14.73
2022-11-12T02:41:23.865Z,9.30
2022-11-12T02:43:51.896Z,14.47
2022-11-12T02:46:20.029Z,12.00
2022-11-12T02:48:47.973Z,10.57
2022-11-12T02:51:16.192Z,11.67
2022-11-12T02:53:51.512Z,14.30
2022-11-12T02:56:23.180Z,11.73
2022-11-12T03:01:37.635Z,12.03
2022-11-12T03:04:09.595Z,9.13
2022-11-12T03:06:44.843Z,11.37
2022-11-12T03:09:12.987Z,11.40
2022-11-12T03:14:24.655Z,10.70
2022-11-12T03:16:52.726Z,14.23
2022-11-12T03:19:20.805Z,15.13
2022-11-12T03:21:48.922Z,13.10
2022-11-12T03:24:16.985Z,14.23
2022-11-12T03:26:46.507Z,14.60
2022-11-12T03:29:14.596Z,16.50
2022-11-12T03:31:43.134Z,19.47
2022-11-12T03:34:12.276Z,13.90
2022-11-12T03:36:40.312Z,11.70
2022-11-12T03:39:08.834Z,13.33
2022-11-12T03:41:36.944Z,16.03
2022-11-12T03:44:06.575Z,21.03
2022-11-12T03:46:35.596Z,13.13
2022-11-12T03:49:05.982Z,10.57
2022-11-12T03:51:34.016Z,11.90
2022-11-12T03:54:02.087Z,17.73
2022-11-12T03:56:30.179Z,13.63
2022-11-12T03:58:58.531Z,9.97
2022-11-12T04:01:30.550Z,12.43
2022-11-12T04:03:58.921Z,10.53
2022-11-12T04:06:44.518Z,9.47
2022-11-12T04:09:13.010Z,13.53
2022-11-12T04:11:41.191Z,14.23
2022-11-12T04:14:08.643Z,10.20
2022-11-12T04:16:55.758Z,10.60
2022-11-12T04:19:41.236Z,9.90
2022-11-12T04:22:12.416Z,9.53
2022-11-12T04:25:00.365Z,12.23
2022-11-12T04:27:30.264Z,11.03
2022-11-12T04:30:16.217Z,8.97
2022-11-12T04:32:50.606Z,12.93
2022-11-12T04:35:19.543Z,11.20
2022-11-12T04:37:48.746Z,14.13
2022-11-12T04:40:36.477Z,11.33
2022-11-12T04:43:23.147Z,13.03
2022-11-12T04:45:53.540Z,11.97
2022-11-12T04:48:24.226Z,10.70
2022-11-12T04:50:56.829Z,10.13
2022-11-12T04:53:25.975Z,12.67
2022-11-12T04:55:54.919Z,10.73
2022-11-12T04:58:23.682Z,10.87
2022-11-12T05:00:53.633Z,9.97
2022-11-12T05:03:23.959Z,10.40
2022-11-12T05:05:52.346Z,12.10
2022-11-12T05:08:20.385Z,8.03
2022-11-12T05:10:48.678Z,11.10
2022-11-12T05:13:16.690Z,12.23
2022-11-12T05:15:45.059Z,10.70
2022-11-12T05:18:13.203Z,13.60
2022-11-12T05:20:42.829Z,9.80
2022-11-12T05:23:10.884Z,9.57
2022-11-12T05:25:39.052Z,10.23
2022-11-12T05:28:07.407Z,8.37
2022-11-12T05:30:36.508Z,7.03
2022-11-12T05:33:04.686Z,6.73
2022-11-12T05:35:32.966Z,8.80
2022-11-12T05:38:02.313Z,7.50
2022-11-12T05:40:30.541Z,9.17
2022-11-12T05:42:58.752Z,10.73
2022-11-12T05:45:27.015Z,7.50
2022-11-12T05:47:55.300Z,10.70
2022-11-12T05:50:23.612Z,7.77
2022-11-12T05:52:51.717Z,10.03
2022-11-12T05:55:21.226Z,11.60
2022-11-12T05:57:49.396Z,9.93
2022-11-12T06:00:18.494Z,10.30
2022-11-12T06:02:46.524Z,7.73
2022-11-12T06:05:15.064Z,6.53
2022-11-12T06:07:43.244Z,7.13
2022-11-12T06:10:16.033Z,8.73
2022-11-12T06:12:48.898Z,9.23
2022-11-12T06:15:17.231Z,5.33
2022-11-12T06:17:45.439Z,10.07
2022-11-12T06:20:14.109Z,9.67
2022-11-12T06:22:42.374Z,8.70
2022-11-12T06:25:10.917Z,11.07
2022-11-12T06:27:39.136Z,8.30
2022-11-12T06:30:10.629Z,9.63
2022-11-12T06:32:38.667Z,14.13
2022-11-12T06:35:07.681Z,7.97
2022-11-12T06:37:35.779Z,6.77
2022-11-12T06:40:03.871Z,5.27
2022-11-12T06:42:32.075Z,8.53
2022-11-12T06:45:00.300Z,7.87
2022-11-12T06:47:29.859Z,6.63
2022-11-12T06:49:57.959Z,6.77
2022-11-12T06:52:26.789Z,5.60
2022-11-12T06:54:54.970Z,7.37
2022-11-12T06:57:23.142Z,5.47
2022-11-12T06:59:51.378Z,3.73
2022-11-12T07:02:19.394Z,5.33
2022-11-12T07:04:48.882Z,5.80
2022-11-12T07:07:17.149Z,5.90
2022-11-12T07:09:45.279Z,3.70
2022-11-12T07:12:13.488Z,5.50
2022-11-12T07:14:41.558Z,4.10
2022-11-12T07:17:09.803Z,3.80
2022-11-12T07:19:38.254Z,5.90
2022-11-12T07:22:07.747Z,3.93
2022-11-12T07:24:35.862Z,5.80
2022-11-12T07:27:04.011Z,5.00
2022-11-12T07:29:46.872Z,4.77
2022-11-12T07:32:15.912Z,7.70
2022-11-12T07:34:43.986Z,5.47
2022-11-12T07:37:14.062Z,4.97
2022-11-12T07:39:42.192Z,7.90
2022-11-12T07:42:10.313Z,4.80
2022-11-12T07:44:38.615Z,7.63
2022-11-12T07:47:06.717Z,6.30
2022-11-12T07:49:34.723Z,5.77
2022-11-12T07:52:02.817Z,6.17
2022-11-12T07:54:32.411Z,5.73
2022-11-12T07:57:00.849Z,5.63
2022-11-12T07:59:29.426Z,9.70
2022-11-12T08:01:57.528Z,6.47
2022-11-12T08:04:27.862Z,6.53
2022-11-12T08:07:01.282Z,6.53
2022-11-12T08:09:29.356Z,8.00
2022-11-12T08:11:58.842Z,7.30
2022-11-12T08:14:26.949Z,6.80
2022-11-12T08:16:55.069Z,6.40
2022-11-12T08:19:23.287Z,6.47
2022-11-12T08:21:51.275Z,5.67
2022-11-12T08:24:19.485Z,5.50
2022-11-12T08:26:47.592Z,5.53
2022-11-12T08:29:17.145Z,5.40
2022-11-12T08:31:48.395Z,5.60
2022-11-12T08:34:22.330Z,7.60
2022-11-12T08:36:50.774Z,7.90
2022-11-12T08:39:19.048Z,12.27
2022-11-12T08:41:47.339Z,6.77
2022-11-12T08:44:17.017Z,7.60
2022-11-12T08:46:45.257Z,8.90
2022-11-12T08:49:13.588Z,10.30
2022-11-12T08:51:41.622Z,8.73
2022-11-12T08:54:09.844Z,6.57
2022-11-12T08:56:38.063Z,6.57
2022-11-12T08:59:07.509Z,7.70
2022-11-12T09:01:43.581Z,8.70
2022-11-12T09:04:23.642Z,7.33
2022-11-12T09:06:54.064Z,12.17
2022-11-12T09:13:10.707Z,5.70
2022-11-12T09:15:39.204Z,6.17
2022-11-12T09:18:12.250Z,9.50
2022-11-12T09:20:40.723Z,7.93
2022-11-12T09:23:10.745Z,7.00
2022-11-12T09:25:39.890Z,5.17
2022-11-12T09:28:10.209Z,5.00
2022-11-12T09:30:39.660Z,8.27
2022-11-12T09:33:09.429Z,7.90
2022-11-12T09:35:37.652Z,5.63
2022-11-12T09:38:08.208Z,6.30
2022-11-12T09:40:44.934Z,8.90
2022-11-12T09:43:20.357Z,5.07
2022-11-12T09:46:06.504Z,6.23
2022-11-12T09:48:50.445Z,5.30
2022-11-12T09:51:26.509Z,4.53
2022-11-12T09:53:57.295Z,5.13
2022-11-12T09:56:28.246Z,7.00
2022-11-12T09:58:56.447Z,5.53
2022-11-12T10:01:36.279Z,6.70
2022-11-12T10:04:21.394Z,7.00
2022-11-12T10:06:59.321Z,7.10
2022-11-12T10:09:34.990Z,7.57
2022-11-12T10:12:31.639Z,8.23
2022-11-12T10:15:37.282Z,5.00
2022-11-12T10:18:09.782Z,9.13
2022-11-12T10:20:45.006Z,10.30
2022-11-12T10:23:19.588Z,10.70
2022-11-12T10:25:50.401Z,11.03
2022-11-12T10:28:28.152Z,6.93
2022-11-12T10:31:09.016Z,8.00
2022-11-12T10:33:37.291Z,9.27
2022-11-12T10:36:27.643Z,6.17
2022-11-12T10:38:56.194Z,6.10
2022-11-12T10:41:27.454Z,6.43
2022-11-12T10:44:14.822Z,7.50
2022-11-12T10:46:43.450Z,9.70
2022-11-12T10:49:25.728Z,7.47
2022-11-12T10:51:58.839Z,9.50
2022-11-12T10:54:36.166Z,9.23
2022-11-12T10:57:21.493Z,7.27
2022-11-12T11:00:10.143Z,9.00
2022-11-12T11:02:38.304Z,10.03
2022-11-12T11:05:31.177Z,7.17
2022-11-12T11:08:01.617Z,14.00
2022-11-12T11:10:31.517Z,12.73
2022-11-12T11:13:22.860Z,10.17
2022-11-12T11:16:02.457Z,13.50
2022-11-12T11:18:31.989Z,9.23
2022-11-12T11:21:09.807Z,8.73
2022-11-12T11:23:47.058Z,11.10
2022-11-12T11:26:28.864Z,10.30
2022-11-12T11:29:01.721Z,7.97
2022-11-12T11:31:41.353Z,14.00
2022-11-12T11:34:23.190Z,9.60
2022-11-12T11:37:02.001Z,9.43
2022-11-12T11:39:41.366Z,9.53
2022-11-12T11:42:25.016Z,8.47
2022-11-12T11:45:03.898Z,8.50
2022-11-12T11:47:59.838Z,7.57
2022-11-12T11:50:30.539Z,11.80
2022-11-12T11:53:13.962Z,10.20
2022-11-12T11:55:54.056Z,9.07
2022-11-12T11:58:48.918Z,8.73
2022-11-12T12:01:23.148Z,7.80
2022-11-12T12:04:24.451Z,10.80
2022-11-12T12:07:05.763Z,11.87
2022-11-12T12:09:43.932Z,9.10
2022-11-12T12:12:23.858Z,13.67
2022-11-12T12:15:02.729Z,13.53
2022-11-12T12:17:55.282Z,9.23
2022-11-12T12:20:33.695Z,10.80
2022-11-12T12:23:05.953Z,14.60
2022-11-12T12:25:37.387Z,11.83
2022-11-12T12:28:15.591Z,16.47
2022-11-12T12:30:47.048Z,12.60
2022-11-12T12:33:26.264Z,12.67
2022-11-12T12:35:57.900Z,10.30
2022-11-12T12:38:32.637Z,11.30
2022-11-12T12:41:06.655Z,14.13
2022-11-12T12:43:39.342Z,11.40
2022-11-12T12:46:08.103Z,11.40
2022-11-12T12:48:39.685Z,12.33
2022-11-12T12:51:07.982Z,12.30
2022-11-12T12:53:37.267Z,16.33
2022-11-12T12:56:07.076Z,12.80
2022-11-12T12:58:45.313Z,14.37
2022-11-12T13:01:31.533Z,8.87
2022-11-12T13:04:04.553Z,14.00
2022-11-12T13:06:35.735Z,13.17
2022-11-12T13:09:09.116Z,8.70
2022-11-12T13:12:14.415Z,14.03
2022-11-12T13:15:11.599Z,13.67
2022-11-12T13:17:51.242Z,13.87
2022-11-12T13:20:38.562Z,11.67
2022-11-12T13:24:04.785Z,10.97
2022-11-12T13:26:53.876Z,14.13
2022-11-12T13:29:48.308Z,14.00
2022-11-12T13:32:37.128Z,15.13
2022-11-12T13:35:47.511Z,14.07
2022-11-12T13:38:23.192Z,12.20
2022-11-12T13:40:56.056Z,14.57
2022-11-12T13:43:33.949Z,11.83
2022-11-12T13:46:40.199Z,15.57
2022-11-12T13:49:15.341Z,14.30
2022-11-12T13:51:53.447Z,14.17
2022-11-12T13:54:34.337Z,13.07
2022-11-12T13:57:29.090Z,12.13
2022-11-12T14:00:31.100Z,12.67
2022-11-12T14:03:01.893Z,11.20
2022-11-12T14:05:34.681Z,15.13
2022-11-12T14:08:56.476Z,13.20
2022-11-12T14:12:16.433Z,16.20
2022-11-12T14:15:12.434Z,18.03
2022-11-12T14:18:01.667Z,20.37
2022-11-12T14:20:41.807Z,15.67
2022-11-12T14:23:13.949Z,19.20
2022-11-12T14:25:49.984Z,17.20
2022-11-12T14:28:27.668Z,26.53
2022-11-12T14:30:56.405Z,26.83
2022-11-12T14:33:28.582Z,28.23
2022-11-12T14:36:02.355Z,32.23
2022-11-12T14:38:34.485Z,33.70
2022-11-12T14:41:06.511Z,20.83
2022-11-12T14:43:41.083Z,19.33
2022-11-12T14:46:19.846Z,25.60
2022-11-12T14:48:51.964Z,23.73
2022-11-12T14:51:23.316Z,21.10
2022-11-12T14:53:57.308Z,16.30
2022-11-12T14:56:35.178Z,17.60
2022-11-12T14:59:04.836Z,23.60
2022-11-12T15:04:26.120Z,21.67
2022-11-12T15:06:58.622Z,15.13
2022-11-12T15:09:38.033Z,16.20
2022-11-12T15:12:08.282Z,15.90
2022-11-12T15:14:36.942Z,18.00
2022-11-12T15:17:06.073Z,15.23
2022-11-12T15:19:35.047Z,14.40
2022-11-12T15:22:05.453Z,19.33
2022-11-12T15:24:35.095Z,13.70
2022-11-12T15:27:24.383Z,15.93
2022-11-12T15:30:09.049Z,13.97
2022-11-12T15:32:36.983Z,17.20
2022-11-12T15:35:05.703Z,13.83
2022-11-12T15:37:43.217Z,16.73
2022-11-12T15:40:18.731Z,15.77
2022-11-12T15:42:49.260Z,13.07
2022-11-12T15:45:28.801Z,12.20
2022-11-12T15:47:56.991Z,15.30
2022-11-12T15:50:26.169Z,17.80
2022-11-12T15:52:55.919Z,17.93
2022-11-12T15:55:24.021Z,12.73
2022-11-12T15:57:54.170Z,21.27
2022-11-12T16:00:26.582Z,19.90
2022-11-12T16:02:59.333Z,19.50
2022-11-12T16:05:27.940Z,17.40
2022-11-12T16:07:57.511Z,16.80
2022-11-12T16:10:25.568Z,22.20
2022-11-12T16:12:58.484Z,19.50
2022-11-12T16:15:27.107Z,16.57
2022-11-12T16:17:57.128Z,17.77
2022-11-12T16:20:27.085Z,20.97
2022-11-12T16:22:55.788Z,17.53
2022-11-12T16:25:29.625Z,16.40
2022-11-12T16:27:58.458Z,22.20
2022-11-12T16:30:28.258Z,17.90
2022-11-12T16:32:58.890Z,12.97
2022-11-12T16:35:27.982Z,18.07
2022-11-12T16:37:56.924Z,21.30
2022-11-12T16:40:28.408Z,17.93
2022-11-12T16:42:56.423Z,22.20
2022-11-12T16:45:26.167Z,18.53
2022-11-12T16:47:57.180Z,29.30
2022-11-12T16:50:28.982Z,25.87
2022-11-12T16:52:57.045Z,24.37
2022-11-12T16:55:26.600Z,23.87
2022-11-12T16:57:54.661Z,26.30
2022-11-12T17:00:23.035Z,16.00
2022-11-12T17:02:53.558Z,17.37
2022-11-12T17:05:24.316Z,14.70
2022-11-12T17:07:57.195Z,12.10
2022-11-12T17:10:26.717Z,16.63
2022-11-12T17:12:54.783Z,17.30
2022-11-12T17:15:23.155Z,19.17
2022-11-12T17:17:54.425Z,19.80
2022-11-12T17:20:22.493Z,15.87
2022-11-12T17:22:50.498Z,18.20
2022-11-12T17:25:18.753Z,20.70
2022-11-12T17:27:48.340Z,21.43
2022-11-12T17:30:16.676Z,21.73
2022-11-12T17:32:45.052Z,25.37
2022-11-12T17:35:13.055Z,23.90
2022-11-12T17:37:41.236Z,22.53
2022-11-12T17:40:10.585Z,24.53
2022-11-12T17:42:38.619Z,19.00
2022-11-12T17:45:09.450Z,35.57
2022-11-12T17:47:40.483Z,27.93
2022-11-12T17:50:09.944Z,25.23
2022-11-12T17:52:38.012Z,23.17
2022-11-12T17:55:06.996Z,29.50
2022-11-12T17:57:35.021Z,27.17
2022-11-12T18:00:03.124Z,28.57
2022-11-12T18:02:32.703Z,30.83
2022-11-12T18:05:00.854Z,29.00
2022-11-12T18:07:28.948Z,24.50
2022-11-12T18:09:57.037Z,23.40
2022-11-12T18:12:25.274Z,27.67
2022-11-12T18:14:59.432Z,33.80
2022-11-12T18:17:27.710Z,32.00
2022-11-12T18:19:57.229Z,26.73
2022-11-12T18:22:33.386Z,23.13
2022-11-12T18:25:01.700Z,29.97
2022-11-12T18:27:30.223Z,26.53
2022-11-12T18:29:58.435Z,27.03
2022-11-12T18:32:26.681Z,23.90
2022-11-12T18:34:56.229Z,27.47
2022-11-12T18:37:24.257Z,30.90
2022-11-12T18:40:20.865Z,38.97
2022-11-12T18:42:49.120Z,25.23
2022-11-12T18:45:17.645Z,41.10
2022-11-12T18:47:52.664Z,33.37
2022-11-12T18:50:22.189Z,33.43
2022-11-12T18:52:50.943Z,37.60
2022-11-12T18:55:19.179Z,35.40
2022-11-12T18:57:47.721Z,33.20
2022-11-12T19:00:17.266Z,30.40
2022-11-12T19:02:46.859Z,31.63
2022-11-12T19:05:20.887Z,35.20
2022-11-12T19:07:56.441Z,29.83
2022-11-12T19:10:24.509Z,39.53
2022-11-12T19:12:53.019Z,30.40
2022-11-12T19:15:26.445Z,42.07
2022-11-12T19:17:54.809Z,31.00
2022-11-12T19:20:26.299Z,27.97
2022-11-12T19:22:56.004Z,29.80
2022-11-12T19:25:30.932Z,29.27
2022-11-12T19:28:01.753Z,28.73
2022-11-12T19:30:30.377Z,40.50
2022-11-12T19:32:58.437Z,32.33
2022-11-12T19:35:28.996Z,35.10
2022-11-12T19:37:58.524Z,44.37
2022-11-12T19:40:31.142Z,36.27
2022-11-12T19:42:59.289Z,38.70
2022-11-12T19:45:27.609Z,37.73
2022-11-12T19:47:55.774Z,36.23
2022-11-12T19:50:24.937Z,41.60
2022-11-12T19:52:58.829Z,38.93
2022-11-12T19:55:29.869Z,33.60
2022-11-12T19:57:58.545Z,39.27
2022-11-12T20:00:35.734Z,36.17
2022-11-12T20:03:03.948Z,36.93
2022-11-12T20:05:34.260Z,40.33
2022-11-12T20:08:02.524Z,37.30
2022-11-12T20:10:32.206Z,43.33
2022-11-12T20:13:01.787Z,36.83
2022-11-12T20:15:29.842Z,35.53
2022-11-12T20:17:57.929Z,36.70
2022-11-12T20:20:26.130Z,37.77
2022-11-12T20:22:58.011Z,35.50
2022-11-12T20:25:26.188Z,39.37
2022-11-12T20:27:55.900Z,32.57
2022-11-12T20:36:07.045Z,33.17
2022-11-12T20:41:48.724Z,33.57
2022-11-12T20:44:19.882Z,34.00
2022-11-12T20:49:30.543Z,34.97
2022-11-12T20:52:13.449Z,50.97
2022-11-12T20:54:46.855Z,34.77
2022-11-12T20:57:17.673Z,41.20
2022-11-12T20:59:51.228Z,43.20
2022-11-12T21:02:20.081Z,41.03
2022-11-12T21:04:49.267Z,45.60
2022-11-12T21:07:29.928Z,46.13
2022-11-12T21:09:58.702Z,52.27
2022-11-12T21:12:43.488Z,45.23
2022-11-12T21:15:13.829Z,48.10
2022-11-12T21:17:44.602Z,47.57
2022-11-12T21:20:15.456Z,54.83
2022-11-12T21:22:45.457Z,47.80
2022-11-12T21:25:13.781Z,47.00
2022-11-12T21:27:48.054Z,42.60
2022-11-12T21:30:20.285Z,42.70
2022-11-12T21:32:49.105Z,32.30
2022-11-12T21:38:06.016Z,28.37
2022-11-12T21:40:36.569Z,26.37
2022-11-12T21:43:15.301Z,27.90
2022-11-12T21:46:03.192Z,35.03
2022-11-12T21:48:32.132Z,34.90
2022-11-12T21:53:49.289Z,31.33
2022-11-12T21:56:22.651Z,28.70
2022-11-12T21:58:50.992Z,46.17
2022-11-12T22:01:26.364Z,34.70
2022-11-12T22:03:56.770Z,45.30
2022-11-12T22:06:26.736Z,41.57
2022-11-12T22:08:57.128Z,44.90
2022-11-12T22:11:38.617Z,79.83
2022-11-12T22:14:10.782Z,30.93
2022-11-12T22:16:43.050Z,36.80
2022-11-12T22:19:12.993Z,29.23
2022-11-12T22:21:42.076Z,20.20
2022-11-12T22:24:14.685Z,29.47
2022-11-12T22:26:43.126Z,25.10
2022-11-12T22:29:11.615Z,26.47
2022-11-12T22:31:42.137Z,28.97
2022-11-12T22:34:11.471Z,21.30
2022-11-12T22:36:41.150Z,18.23
2022-11-12T22:39:10.809Z,21.23
2022-11-12T22:41:40.170Z,12.60
2022-11-12T22:46:56.992Z,12.07
2022-11-12T22:49:26.637Z,13.30
2022-11-12T22:51:56.719Z,12.00
2022-11-12T22:54:25.455Z,14.07
2022-11-12T22:57:00.134Z,12.20
2022-11-12T23:02:22.304Z,16.20
2022-11-12T23:04:50.898Z,16.93
2022-11-12T23:07:19.985Z,17.33
2022-11-12T23:09:49.788Z,16.53
2022-11-12T23:12:19.076Z,18.17
2022-11-12T23:14:51.008Z,14.63
2022-11-12T23:17:20.780Z,20.50
2022-11-12T23:19:50.527Z,14.30
2022-11-12T23:22:18.860Z,16.13
2022-11-12T23:24:47.329Z,15.13
2022-11-12T23:27:16.221Z,12.97
2022-11-12T23:30:09.494Z,19.27
2022-11-12T23:32:44.008Z,16.90
2022-11-12T23:35:17.026Z,17.23
2022-11-12T23:37:48.887Z,15.10
2022-11-12T23:40:19.625Z,18.83
2022-11-12T23:45:31.622Z,19.23
2022-11-12T23:48:07.595Z,20.27
2022-11-12T23:50:41.378Z,23.20
2022-11-12T23:55:55.616Z,15.63
2022-11-12T23:58:39.884Z,15.50
